HYS276 LROP-LRCL
Flight info
| Callsign | HYS276 |
|---|---|
| Flight time | 0h 35m |
| Altitude | 34000 |
| Route | BUKEL DCT EDETA |
| Aircraft | A320/M-SDE1E2E3FGIJ1J4RWXY/LB1 |
Departure
| Time | 2026-04-24 19:30 |
|---|---|
| Airport | Bucharest Henri Coandă International Airport (LROP) |
Arrival
| Time | 2026-04-24 20:05 |
|---|---|
| Airport | Avram Iancu Cluj International Airport (LRCL) |
| Time | Latitude | Longitude | Altitude | Speed | Heading |
|---|---|---|---|---|---|
| 2026-04-24 18:57 | 44.57021 | 26.08134 | 320 ft | 0 kts | 354° |
| 2026-04-24 19:21 | 44.57017 | 26.08134 | 319 ft | 2 kts | 354° |
| 2026-04-24 19:21 | 44.56998 | 26.08136 | 322 ft | 3 kts | 358° |
| 2026-04-24 19:22 | 44.56984 | 26.08137 | 322 ft | 3 kts | 1° |
| 2026-04-24 19:22 | 44.56958 | 26.08134 | 320 ft | 3 kts | 16° |
| 2026-04-24 19:22 | 44.56941 | 26.08123 | 320 ft | 3 kts | 50° |
| 2026-04-24 19:22 | 44.56935 | 26.08110 | 319 ft | 1 kts | 84° |
| 2026-04-24 19:26 | 44.56938 | 26.08156 | 321 ft | 7 kts | 84° |
| 2026-04-24 19:26 | 44.56945 | 26.08248 | 323 ft | 12 kts | 84° |
| 2026-04-24 19:26 | 44.56945 | 26.08364 | 321 ft | 12 kts | 114° |
| 2026-04-24 19:27 | 44.56895 | 26.08443 | 323 ft | 10 kts | 110° |
| 2026-04-24 19:27 | 44.56921 | 26.08539 | 323 ft | 12 kts | 28° |
| 2026-04-24 19:27 | 44.57017 | 26.08537 | 323 ft | 15 kts | 354° |
| 2026-04-24 19:27 | 44.57135 | 26.08520 | 323 ft | 19 kts | 354° |
| 2026-04-24 19:28 | 44.57276 | 26.08498 | 323 ft | 22 kts | 354° |
| 2026-04-24 19:28 | 44.57439 | 26.08475 | 323 ft | 25 kts | 354° |
| 2026-04-24 19:28 | 44.57548 | 26.08459 | 323 ft | 6 kts | 354° |
| 2026-04-24 19:28 | 44.57603 | 26.08451 | 321 ft | 10 kts | 354° |
| 2026-04-24 19:29 | 44.57673 | 26.08586 | 324 ft | 16 kts | 83° |
| 2026-04-24 19:29 | 44.57712 | 26.09104 | 321 ft | 91 kts | 84° |
| 2026-04-24 19:29 | 44.57801 | 26.10279 | 323 ft | 148 kts | 84° |
| 2026-04-24 19:30 | 44.57923 | 26.11840 | 744 ft | 163 kts | 84° |
| 2026-04-24 19:30 | 44.58045 | 26.13425 | 1472 ft | 164 kts | 84° |
| 2026-04-24 19:30 | 44.58166 | 26.15008 | 2193 ft | 163 kts | 84° |
| 2026-04-24 19:30 | 44.58285 | 26.16585 | 2871 ft | 162 kts | 84° |
| 2026-04-24 19:31 | 44.58408 | 26.18158 | 3540 ft | 162 kts | 84° |
| 2026-04-24 19:31 | 44.58634 | 26.19711 | 4155 ft | 165 kts | 63° |
| 2026-04-24 19:31 | 44.59420 | 26.20844 | 4774 ft | 165 kts | 23° |
| 2026-04-24 19:31 | 44.60544 | 26.21058 | 5375 ft | 167 kts | 346° |
| 2026-04-24 19:32 | 44.61616 | 26.20313 | 5776 ft | 183 kts | 326° |
| 2026-04-24 19:32 | 44.62722 | 26.19240 | 6129 ft | 203 kts | 324° |
| 2026-04-24 19:32 | 44.63927 | 26.18037 | 6466 ft | 227 kts | 324° |
| 2026-04-24 19:32 | 44.65284 | 26.16690 | 6974 ft | 251 kts | 324° |
| 2026-04-24 19:33 | 44.66778 | 26.15217 | 7532 ft | 272 kts | 324° |
| 2026-04-24 19:33 | 44.68350 | 26.13673 | 8379 ft | 279 kts | 324° |
| 2026-04-24 19:33 | 44.69956 | 26.12102 | 9292 ft | 284 kts | 325° |
| 2026-04-24 19:33 | 44.71589 | 26.10507 | 10171 ft | 289 kts | 325° |
| 2026-04-24 19:34 | 44.73307 | 26.08830 | 10565 ft | 312 kts | 325° |
| 2026-04-24 19:34 | 44.75137 | 26.07046 | 11142 ft | 325 kts | 325° |
| 2026-04-24 19:34 | 44.77011 | 26.05219 | 11917 ft | 330 kts | 325° |
| 2026-04-24 19:34 | 44.78909 | 26.03363 | 12703 ft | 334 kts | 325° |
| 2026-04-24 19:35 | 44.80831 | 26.01481 | 13470 ft | 339 kts | 325° |
| 2026-04-24 19:35 | 44.82776 | 25.99573 | 14225 ft | 342 kts | 324° |
| 2026-04-24 19:35 | 44.84738 | 25.97641 | 14954 ft | 346 kts | 324° |
| 2026-04-24 19:35 | 44.86722 | 25.95683 | 15651 ft | 350 kts | 324° |
| 2026-04-24 19:36 | 44.88727 | 25.93704 | 16328 ft | 354 kts | 324° |
| 2026-04-24 19:36 | 44.90754 | 25.91709 | 16996 ft | 357 kts | 324° |
| 2026-04-24 19:36 | 44.92804 | 25.89692 | 17655 ft | 361 kts | 324° |
| 2026-04-24 19:36 | 44.94873 | 25.87653 | 18301 ft | 365 kts | 324° |
| 2026-04-24 19:37 | 44.96964 | 25.85591 | 18942 ft | 368 kts | 324° |
| 2026-04-24 19:37 | 44.99074 | 25.83506 | 19581 ft | 372 kts | 324° |
| 2026-04-24 19:37 | 45.01207 | 25.81398 | 20213 ft | 376 kts | 324° |
| 2026-04-24 19:37 | 45.03357 | 25.79270 | 20807 ft | 379 kts | 324° |
| 2026-04-24 19:38 | 45.05528 | 25.77120 | 21384 ft | 383 kts | 324° |
| 2026-04-24 19:38 | 45.07715 | 25.74949 | 21924 ft | 386 kts | 324° |
| 2026-04-24 19:38 | 45.09923 | 25.72753 | 22449 ft | 389 kts | 324° |
| 2026-04-24 19:38 | 45.12150 | 25.70540 | 22968 ft | 393 kts | 324° |
| 2026-04-24 19:39 | 45.14397 | 25.68308 | 23488 ft | 396 kts | 324° |
| 2026-04-24 19:39 | 45.16662 | 25.66054 | 23997 ft | 400 kts | 324° |
| 2026-04-24 19:39 | 45.18947 | 25.63776 | 24503 ft | 403 kts | 324° |
| 2026-04-24 19:39 | 45.21247 | 25.61480 | 24977 ft | 406 kts | 324° |
| 2026-04-24 19:40 | 45.23569 | 25.59164 | 25442 ft | 410 kts | 324° |
| 2026-04-24 19:40 | 45.25907 | 25.56827 | 25882 ft | 413 kts | 324° |
| 2026-04-24 19:40 | 45.28270 | 25.54462 | 26301 ft | 418 kts | 324° |
| 2026-04-24 19:40 | 45.30652 | 25.52073 | 26748 ft | 421 kts | 324° |
| 2026-04-24 19:41 | 45.33050 | 25.49664 | 27190 ft | 424 kts | 324° |
| 2026-04-24 19:41 | 45.35468 | 25.47234 | 27571 ft | 428 kts | 324° |
| 2026-04-24 19:41 | 45.37910 | 25.44778 | 27902 ft | 432 kts | 324° |
| 2026-04-24 19:41 | 45.40356 | 25.42316 | 27988 ft | 426 kts | 324° |
| 2026-04-24 19:42 | 45.42725 | 25.39930 | 28013 ft | 410 kts | 324° |
| 2026-04-24 19:42 | 45.47305 | 25.35312 | 28006 ft | 399 kts | 324° |
| 2026-04-24 19:43 | 45.51813 | 25.30749 | 28010 ft | 397 kts | 324° |
| 2026-04-24 19:43 | 45.56321 | 25.26187 | 28009 ft | 398 kts | 324° |
| 2026-04-24 19:44 | 45.60827 | 25.21623 | 28000 ft | 397 kts | 324° |
| 2026-04-24 19:44 | 45.64569 | 25.17823 | 28007 ft | 397 kts | 324° |
| 2026-04-24 19:45 | 45.69053 | 25.13255 | 27824 ft | 391 kts | 324° |
| 2026-04-24 19:45 | 45.71253 | 25.11014 | 27467 ft | 386 kts | 324° |
| 2026-04-24 19:45 | 45.73430 | 25.08794 | 27103 ft | 382 kts | 324° |
| 2026-04-24 19:45 | 45.75585 | 25.06590 | 26701 ft | 379 kts | 324° |
| 2026-04-24 19:46 | 45.77721 | 25.04403 | 26289 ft | 376 kts | 324° |
| 2026-04-24 19:46 | 45.79844 | 25.02225 | 25875 ft | 374 kts | 324° |
| 2026-04-24 19:46 | 45.81951 | 25.00064 | 25458 ft | 371 kts | 324° |
| 2026-04-24 19:46 | 45.84045 | 24.97921 | 25037 ft | 369 kts | 324° |
| 2026-04-24 19:47 | 45.86122 | 24.95791 | 24680 ft | 365 kts | 324° |
| 2026-04-24 19:47 | 45.88189 | 24.93669 | 24431 ft | 366 kts | 324° |
| 2026-04-24 19:47 | 45.90257 | 24.91542 | 24180 ft | 365 kts | 324° |
| 2026-04-24 19:47 | 45.92313 | 24.89423 | 23783 ft | 362 kts | 324° |
| 2026-04-24 19:48 | 45.94350 | 24.87317 | 23355 ft | 360 kts | 324° |
| 2026-04-24 19:48 | 45.96375 | 24.85226 | 22932 ft | 357 kts | 324° |
| 2026-04-24 19:48 | 46.00381 | 24.81083 | 22090 ft | 352 kts | 324° |
| 2026-04-24 19:49 | 46.04332 | 24.76992 | 21257 ft | 347 kts | 324° |
| 2026-04-24 19:49 | 46.08231 | 24.72955 | 20413 ft | 343 kts | 324° |
| 2026-04-24 19:50 | 46.13980 | 24.66973 | 19184 ft | 336 kts | 324° |
| 2026-04-24 19:50 | 46.15873 | 24.65006 | 18783 ft | 334 kts | 324° |
| 2026-04-24 19:51 | 46.19620 | 24.61105 | 17992 ft | 330 kts | 324° |
| 2026-04-24 19:51 | 46.21476 | 24.59173 | 17612 ft | 328 kts | 324° |
| 2026-04-24 19:52 | 46.25151 | 24.55339 | 16845 ft | 324 kts | 324° |
| 2026-04-24 19:52 | 46.26973 | 24.53435 | 16465 ft | 322 kts | 324° |
| 2026-04-24 19:52 | 46.28783 | 24.51541 | 16086 ft | 321 kts | 323° |
| 2026-04-24 19:52 | 46.30581 | 24.49652 | 15720 ft | 319 kts | 323° |
| 2026-04-24 19:53 | 46.32368 | 24.47771 | 15353 ft | 317 kts | 323° |
| 2026-04-24 19:53 | 46.34143 | 24.45902 | 14990 ft | 315 kts | 323° |
| 2026-04-24 19:53 | 46.37660 | 24.42210 | 14053 ft | 310 kts | 323° |
| 2026-04-24 19:54 | 46.39399 | 24.40385 | 13564 ft | 308 kts | 323° |
| 2026-04-24 19:54 | 46.41126 | 24.38567 | 13087 ft | 306 kts | 323° |
| 2026-04-24 19:54 | 46.42843 | 24.36751 | 12723 ft | 304 kts | 323° |
| 2026-04-24 19:54 | 46.44549 | 24.34946 | 12376 ft | 303 kts | 323° |
| 2026-04-24 19:55 | 46.45672 | 24.33758 | 12145 ft | 301 kts | 323° |
| 2026-04-24 19:55 | 46.47931 | 24.31372 | 11670 ft | 299 kts | 323° |
| 2026-04-24 19:55 | 46.49611 | 24.29598 | 11317 ft | 298 kts | 323° |
| 2026-04-24 19:55 | 46.51280 | 24.27832 | 10963 ft | 296 kts | 323° |
| 2026-04-24 19:56 | 46.52940 | 24.26077 | 10643 ft | 293 kts | 323° |
| 2026-04-24 19:56 | 46.54577 | 24.24345 | 10295 ft | 289 kts | 323° |
| 2026-04-24 19:56 | 46.56198 | 24.22626 | 9872 ft | 287 kts | 323° |
| 2026-04-24 19:56 | 46.57806 | 24.20916 | 9450 ft | 286 kts | 323° |
| 2026-04-24 19:57 | 46.59405 | 24.19214 | 9032 ft | 284 kts | 323° |
| 2026-04-24 19:57 | 46.60993 | 24.17521 | 8598 ft | 282 kts | 323° |
| 2026-04-24 19:57 | 46.62571 | 24.15839 | 8175 ft | 281 kts | 323° |
| 2026-04-24 19:57 | 46.64142 | 24.14169 | 7760 ft | 279 kts | 323° |
| 2026-04-24 19:58 | 46.65703 | 24.12513 | 7341 ft | 277 kts | 323° |
| 2026-04-24 19:58 | 46.67255 | 24.10862 | 6924 ft | 275 kts | 323° |
| 2026-04-24 19:58 | 46.68796 | 24.09218 | 6516 ft | 273 kts | 323° |
| 2026-04-24 19:58 | 46.70321 | 24.07588 | 6285 ft | 273 kts | 323° |
| 2026-04-24 19:59 | 46.71852 | 24.05954 | 6060 ft | 272 kts | 323° |
| 2026-04-24 19:59 | 46.73377 | 24.04327 | 5835 ft | 271 kts | 323° |
| 2026-04-24 19:59 | 46.74897 | 24.02703 | 5600 ft | 270 kts | 323° |
| 2026-04-24 19:59 | 46.76391 | 24.01105 | 5346 ft | 269 kts | 323° |
| 2026-04-24 20:00 | 46.77898 | 23.99489 | 5096 ft | 268 kts | 323° |
| 2026-04-24 20:00 | 46.79389 | 23.97888 | 4846 ft | 264 kts | 323° |
| 2026-04-24 20:00 | 46.80859 | 23.96308 | 4594 ft | 260 kts | 323° |
| 2026-04-24 20:00 | 46.82304 | 23.94747 | 4342 ft | 257 kts | 321° |
| 2026-04-24 20:01 | 46.83378 | 23.92778 | 4128 ft | 242 kts | 291° |
| 2026-04-24 20:01 | 46.83611 | 23.90452 | 3906 ft | 227 kts | 262° |
| 2026-04-24 20:01 | 46.83201 | 23.88282 | 3634 ft | 220 kts | 251° |
| 2026-04-24 20:01 | 46.82727 | 23.86187 | 3361 ft | 214 kts | 252° |
| 2026-04-24 20:02 | 46.82417 | 23.84812 | 3170 ft | 208 kts | 252° |
| 2026-04-24 20:02 | 46.81845 | 23.82254 | 2836 ft | 190 kts | 252° |
| 2026-04-24 20:02 | 46.81453 | 23.80502 | 2586 ft | 172 kts | 252° |
| 2026-04-24 20:02 | 46.81107 | 23.78954 | 2369 ft | 151 kts | 252° |
| 2026-04-24 20:03 | 46.80792 | 23.77549 | 2167 ft | 142 kts | 252° |
| 2026-04-24 20:03 | 46.80489 | 23.76194 | 1987 ft | 139 kts | 252° |
| 2026-04-24 20:03 | 46.80189 | 23.74860 | 1803 ft | 138 kts | 252° |
| 2026-04-24 20:03 | 46.79892 | 23.73533 | 1628 ft | 137 kts | 252° |
| 2026-04-24 20:04 | 46.79595 | 23.72211 | 1441 ft | 137 kts | 252° |
| 2026-04-24 20:04 | 46.79300 | 23.70892 | 1262 ft | 137 kts | 252° |
| 2026-04-24 20:04 | 46.79005 | 23.69574 | 1080 ft | 137 kts | 253° |
| 2026-04-24 20:04 | 46.78742 | 23.68392 | 1043 ft | 100 kts | 251° |
| 2026-04-24 20:05 | 46.78576 | 23.67659 | 1043 ft | 60 kts | 252° |
| 2026-04-24 20:05 | 46.78487 | 23.67265 | 1043 ft | 22 kts | 251° |
| 2026-04-24 20:05 | 46.78430 | 23.67187 | 1043 ft | 12 kts | 187° |
| 2026-04-24 20:05 | 46.78358 | 23.67262 | 1043 ft | 15 kts | 126° |
| 2026-04-24 20:06 | 46.78352 | 23.67418 | 1043 ft | 18 kts | 72° |
| 2026-04-24 20:06 | 46.78383 | 23.67606 | 1043 ft | 21 kts | 72° |
| 2026-04-24 20:06 | 46.78431 | 23.67820 | 1043 ft | 24 kts | 72° |
| 2026-04-24 20:06 | 46.78487 | 23.68063 | 1043 ft | 27 kts | 71° |
| 2026-04-24 20:07 | 46.78527 | 23.68240 | 1043 ft | 29 kts | 72° |
| 2026-04-24 20:07 | 46.78610 | 23.68609 | 1043 ft | 30 kts | 71° |
| 2026-04-24 20:07 | 46.78663 | 23.68848 | 1043 ft | 20 kts | 72° |
| 2026-04-24 20:07 | 46.78702 | 23.69021 | 1043 ft | 19 kts | 71° |
| 2026-04-24 20:08 | 46.78739 | 23.69187 | 1043 ft | 9 kts | 71° |
| 2026-04-24 20:08 | 46.78728 | 23.69251 | 1043 ft | 8 kts | 147° |
| 2026-04-24 20:08 | 46.78666 | 23.69281 | 1043 ft | 11 kts | 161° |
| 2026-04-24 20:08 | 46.78588 | 23.69318 | 1043 ft | 9 kts | 162° |
| 2026-04-24 20:09 | 46.78564 | 23.69345 | 1043 ft | 3 kts | 107° |
| 2026-04-24 20:09 | 46.78569 | 23.69382 | 1043 ft | 4 kts | 70° |
| 2026-04-24 20:09 | 46.78576 | 23.69410 | 1043 ft | 1 kts | 71° |
| 2026-04-24 20:09 | 46.78577 | 23.69413 | 1043 ft | 0 kts | 71° |